Time;durP1;ratioP1;P1;durP2;ratioP2;P2;SDS_P1;SDS_P2;PMS_P1;PMS_P2;Temp;Humidity;BMP_temperature;BMP_pressure;BME280_temperature;BME280_humidity;BME280_pressure;Samples;Min_cycle;Max_cycle;Signal;HPM_P1;HPM_P2
2022/12/26 00:00:37;;;;;;;;;;;19.70;54.30;;;;;;5063190;28;43577;-60
2022/12/26 00:03:05;;;;;;;;;;;19.70;54.30;;;;;;5064391;28;43778;-59
2022/12/26 00:05:35;;;;;;;;;;;19.60;54.10;;;;;;5063926;28;43419;-59
2022/12/26 00:08:03;;;;;;;;;;;19.60;54.30;;;;;;5063537;28;43470;-59
2022/12/26 00:10:30;;;;;;;;;;;19.60;54.30;;;;;;5063696;28;43428;-59
2022/12/26 00:12:59;;;;;;;;;;;19.60;54.40;;;;;;5063786;28;44056;-59
2022/12/26 00:15:46;;;;;;;;;;;19.60;54.40;;;;;;5063741;28;43381;-59
2022/12/26 00:18:13;;;;;;;;;;;19.60;54.40;;;;;;5063590;28;43432;-59
2022/12/26 00:20:41;;;;;;;;;;;19.60;54.40;;;;;;5063909;28;43461;-59
2022/12/26 00:23:08;;;;;;;;;;;19.60;54.40;;;;;;5060713;28;44938;-59
2022/12/26 00:25:35;;;;;;;;;;;19.60;54.40;;;;;;5063554;28;43466;-59
2022/12/26 00:28:02;;;;;;;;;;;19.60;54.50;;;;;;5062553;28;43396;-59
2022/12/26 00:30:31;;;;;;;;;;;19.50;54.40;;;;;;5062522;28;43528;-59
2022/12/26 00:32:58;;;;;;;;;;;19.60;54.50;;;;;;5063258;28;44700;-59
2022/12/26 00:35:25;;;;;;;;;;;19.50;54.40;;;;;;5062388;28;43511;-59
2022/12/26 00:37:53;;;;;;;;;;;19.50;54.70;;;;;;5062311;28;43402;-59
2022/12/26 00:40:20;;;;;;;;;;;19.50;54.50;;;;;;5062623;28;43581;-59
2022/12/26 00:42:47;;;;;;;;;;;19.50;54.50;;;;;;5062112;28;44666;-59
2022/12/26 00:45:15;;;;;;;;;;;19.50;54.50;;;;;;5061764;28;43953;-59
2022/12/26 00:47:42;;;;;;;;;;;19.50;54.50;;;;;;5062060;28;43483;-59
2022/12/26 00:50:09;;;;;;;;;;;19.50;54.40;;;;;;5062100;28;43448;-59
2022/12/26 00:52:41;;;;;;;;;;;19.50;54.50;;;;;;5062613;28;44921;-59
2022/12/26 00:55:08;;;;;;;;;;;19.50;54.50;;;;;;5061904;28;43595;-59
2022/12/26 00:57:36;;;;;;;;;;;19.50;54.50;;;;;;5062579;28;43505;-59
2022/12/26 01:00:04;;;;;;;;;;;19.50;54.40;;;;;;5062351;28;43514;-59
2022/12/26 01:02:37;;;;;;;;;;;19.50;54.50;;;;;;5061645;28;44068;-59
2022/12/26 01:05:09;;;;;;;;;;;19.40;54.30;;;;;;5062313;28;43791;-59
2022/12/26 01:07:37;;;;;;;;;;;19.40;54.50;;;;;;5058814;28;43519;-59
2022/12/26 01:10:24;;;;;;;;;;;19.40;54.40;;;;;;5048080;28;43492;-59
2022/12/26 01:12:52;;;;;;;;;;;19.40;54.50;;;;;;5062572;28;44643;-59
2022/12/26 01:15:19;;;;;;;;;;;19.40;54.40;;;;;;5062820;28;43402;-59
2022/12/26 01:17:46;;;;;;;;;;;19.40;54.50;;;;;;5062668;28;43489;-59
2022/12/26 01:20:14;;;;;;;;;;;19.40;54.50;;;;;;5062536;28;43433;-59
2022/12/26 01:22:41;;;;;;;;;;;19.40;54.50;;;;;;5062726;28;43806;-59
2022/12/26 01:25:10;;;;;;;;;;;19.40;54.50;;;;;;5062280;28;43391;-59
2022/12/26 01:27:37;;;;;;;;;;;19.40;54.60;;;;;;5077869;28;43380;-59
2022/12/26 01:30:05;;;;;;;;;;;19.40;54.60;;;;;;5062339;28;43431;-59
2022/12/26 01:32:32;;;;;;;;;;;19.40;54.50;;;;;;5062330;28;44976;-59
2022/12/26 01:35:00;;;;;;;;;;;19.30;54.50;;;;;;5062826;28;43815;-59
2022/12/26 01:37:27;;;;;;;;;;;19.30;54.50;;;;;;5043495;28;43508;-59
2022/12/26 01:39:54;;;;;;;;;;;19.30;54.50;;;;;;5062380;28;43488;-59
2022/12/26 01:42:23;;;;;;;;;;;19.30;54.50;;;;;;5062548;28;44960;-59
2022/12/26 01:45:05;;;;;;;;;;;19.30;54.50;;;;;;5061391;28;43807;-59
2022/12/26 01:47:38;;;;;;;;;;;19.30;54.50;;;;;;5065982;28;43353;-59
2022/12/26 01:50:09;;;;;;;;;;;19.30;54.50;;;;;;5065316;28;43459;-59
2022/12/26 01:52:38;;;;;;;;;;;19.30;54.50;;;;;;5064541;28;43789;-60
2022/12/26 01:55:07;;;;;;;;;;;19.30;54.60;;;;;;5065242;28;43420;-59
2022/12/26 01:57:38;;;;;;;;;;;19.30;54.60;;;;;;5065606;28;43484;-60
2022/12/26 02:00:06;;;;;;;;;;;19.30;54.60;;;;;;5064509;28;43563;-59
2022/12/26 02:05:42;;;;;;;;;;;19.30;54.60;;;;;;5002034;28;43521;-59
2022/12/26 02:08:09;;;;;;;;;;;19.30;54.60;;;;;;5053109;28;43551;-59
2022/12/26 02:11:03;;;;;;;;;;;19.30;54.60;;;;;;5064854;28;43580;-59
2022/12/26 02:13:33;;;;;;;;;;;19.20;54.60;;;;;;5050583;28;44952;-59
2022/12/26 02:16:01;;;;;;;;;;;19.20;54.50;;;;;;5066240;28;43774;-59
2022/12/26 02:18:29;;;;;;;;;;;19.20;54.60;;;;;;5064420;28;43470;-59
2022/12/26 02:21:06;;;;;;;;;;;19.20;54.60;;;;;;5063121;28;43392;-59
2022/12/26 02:23:49;;;;;;;;;;;19.20;54.60;;;;;;5065227;28;44616;-59
2022/12/26 02:26:23;;;;;;;;;;;19.20;54.60;;;;;;5065594;28;43382;-60
2022/12/26 02:29:03;;;;;;;;;;;19.20;54.70;;;;;;5049362;28;43426;-59
2022/12/26 02:31:48;;;;;;;;;;;19.10;54.60;;;;;;5065371;28;43442;-59
2022/12/26 02:34:22;;;;;;;;;;;19.10;54.60;;;;;;5065087;28;43938;-59
2022/12/26 02:37:08;;;;;;;;;;;19.10;54.70;;;;;;5050637;28;43455;-59
2022/12/26 02:39:39;;;;;;;;;;;19.20;54.70;;;;;;5065127;28;43430;-60
2022/12/26 02:42:27;;;;;;;;;;;19.20;54.70;;;;;;5065479;28;43463;-59
2022/12/26 02:47:59;;;;;;;;;;;19.10;54.70;;;;;;5064793;28;43472;-59
2022/12/26 03:13:25;;;;;;;;;;;19.00;54.70;;;;;;5064737;28;43387;-59
2022/12/26 03:18:41;;;;;;;;;;;19.00;54.80;;;;;;5063313;28;44688;-59
2022/12/26 03:21:35;;;;;;;;;;;19.00;54.80;;;;;;5064069;28;44149;-59
2022/12/26 03:24:02;;;;;;;;;;;19.00;54.70;;;;;;5049782;28;43376;-59
2022/12/26 03:26:38;;;;;;;;;;;19.00;54.70;;;;;;5064420;28;43538;-59
2022/12/26 03:31:53;;;;;;;;;;;19.00;54.80;;;;;;5064002;28;43884;-59
2022/12/26 03:34:20;;;;;;;;;;;19.00;54.80;;;;;;5064503;28;43402;-59
2022/12/26 03:37:06;;;;;;;;;;;19.00;54.70;;;;;;5063436;28;43507;-59
2022/12/26 04:19:59;;;;;;;;;;;18.90;54.90;;;;;;5062762;28;43356;-59
2022/12/26 04:45:12;;;;;;;;;;;18.80;54.90;;;;;;5063041;28;43409;-59
2022/12/26 04:50:10;;;;;;;;;;;18.80;54.80;;;;;;5062279;28;44760;-59
2022/12/26 04:50:27;;;;;;;;;;;18.80;54.80;;;;;;5044287;28;43484;-59
2022/12/26 04:52:57;;;;;;;;;;;18.80;54.90;;;;;;5052182;28;43441;-59
2022/12/26 04:55:28;;;;;;;;;;;18.80;54.90;;;;;;5062756;28;43443;-59
2022/12/26 04:57:56;;;;;;;;;;;18.80;54.80;;;;;;5064036;28;44714;-59
2022/12/26 05:00:24;;;;;;;;;;;18.80;54.90;;;;;;5062845;28;43617;-59
2022/12/26 05:11:18;;;;;;;;;;;18.80;55.00;;;;;;5062638;28;43845;-59
2022/12/26 05:13:46;;;;;;;;;;;18.80;54.90;;;;;;5063434;28;43420;-59
2022/12/26 05:30:06;;;;;;;;;;;18.70;54.90;;;;;;5047949;28;44691;-59
2022/12/26 05:35:19;;;;;;;;;;;18.70;55.10;;;;;;5062976;28;43403;-59
2022/12/26 05:37:47;;;;;;;;;;;18.70;55.10;;;;;;5062149;28;43447;-59
2022/12/26 05:40:16;;;;;;;;;;;18.70;55.10;;;;;;5062083;28;43790;-59
2022/12/26 05:42:43;;;;;;;;;;;18.70;54.90;;;;;;5062737;28;43555;-59
2022/12/26 05:45:10;;;;;;;;;;;18.70;54.90;;;;;;5062575;28;43573;-59
2022/12/26 05:47:37;;;;;;;;;;;18.60;54.90;;;;;;5062570;28;43551;-59
2022/12/26 05:50:05;;;;;;;;;;;18.60;55.00;;;;;;5061320;28;44310;-59
2022/12/26 05:52:32;;;;;;;;;;;18.60;54.90;;;;;;5061874;28;43910;-59
2022/12/26 05:55:00;;;;;;;;;;;18.60;55.00;;;;;;5063153;28;43407;-59
2022/12/26 05:57:27;;;;;;;;;;;18.70;55.10;;;;;;5062238;28;43500;-59
2022/12/26 05:59:55;;;;;;;;;;;18.60;55.00;;;;;;5062378;28;45129;-60
2022/12/26 06:02:23;;;;;;;;;;;18.60;54.90;;;;;;5059534;28;43524;-59
2022/12/26 06:04:50;;;;;;;;;;;18.60;55.00;;;;;;5060886;28;43471;-60
2022/12/26 06:07:17;;;;;;;;;;;18.60;55.10;;;;;;5059246;28;43614;-60
2022/12/26 06:09:45;;;;;;;;;;;18.60;55.00;;;;;;5060406;28;44805;-59
2022/12/26 06:12:12;;;;;;;;;;;18.60;54.90;;;;;;5061432;28;43517;-59
2022/12/26 06:14:39;;;;;;;;;;;18.60;55.00;;;;;;5062485;28;43355;-59
2022/12/26 06:17:07;;;;;;;;;;;18.60;54.90;;;;;;5062022;28;43529;-59
2022/12/26 06:19:34;;;;;;;;;;;18.60;54.90;;;;;;5053213;28;43789;-59
2022/12/26 06:22:07;;;;;;;;;;;18.70;54.90;;;;;;5060213;28;43701;-59
2022/12/26 06:24:34;;;;;;;;;;;18.60;54.80;;;;;;5061533;28;43417;-59
2022/12/26 06:27:02;;;;;;;;;;;18.60;54.90;;;;;;5060714;28;43457;-59
2022/12/26 06:29:30;;;;;;;;;;;18.60;54.80;;;;;;5060860;28;44797;-59
2022/12/26 06:31:58;;;;;;;;;;;18.60;54.80;;;;;;5063927;28;43420;-59
2022/12/26 06:34:26;;;;;;;;;;;18.60;54.80;;;;;;5065024;28;43445;-59
2022/12/26 06:36:56;;;;;;;;;;;18.60;54.80;;;;;;5061691;28;43421;-59
2022/12/26 06:39:23;;;;;;;;;;;18.60;54.80;;;;;;5058297;28;44047;-59
2022/12/26 06:41:52;;;;;;;;;;;18.60;54.80;;;;;;5064531;28;43403;-59
2022/12/26 06:44:19;;;;;;;;;;;18.60;54.90;;;;;;5065637;28;43438;-59
2022/12/26 06:46:46;;;;;;;;;;;18.60;54.90;;;;;;5064531;28;43467;-59
2022/12/26 06:49:14;;;;;;;;;;;18.70;54.80;;;;;;5064298;28;43779;-59
2022/12/26 06:51:43;;;;;;;;;;;18.60;54.80;;;;;;5064933;28;43677;-59
2022/12/26 06:54:11;;;;;;;;;;;18.60;54.90;;;;;;5064730;28;43455;-59
2022/12/26 06:56:38;;;;;;;;;;;18.60;54.80;;;;;;5064833;28;43574;-59
2022/12/26 06:59:05;;;;;;;;;;;18.60;54.80;;;;;;5067264;28;45023;-59
2022/12/26 07:01:33;;;;;;;;;;;18.60;54.80;;;;;;5064362;28;43423;-59
2022/12/26 07:04:03;;;;;;;;;;;18.60;54.80;;;;;;5053939;28;43490;-59
2022/12/26 07:06:34;;;;;;;;;;;18.60;54.80;;;;;;5064613;28;44257;-59
2022/12/26 07:09:03;;;;;;;;;;;18.60;54.90;;;;;;5058893;28;44388;-59
2022/12/26 07:11:32;;;;;;;;;;;18.60;54.90;;;;;;5063460;28;43400;-59
2022/12/26 07:14:00;;;;;;;;;;;18.50;54.80;;;;;;5063770;28;43454;-59
2022/12/26 07:16:27;;;;;;;;;;;18.50;54.80;;;;;;5063168;28;43507;-59
2022/12/26 07:18:56;;;;;;;;;;;18.50;54.90;;;;;;5064213;28;44651;-59
2022/12/26 07:21:24;;;;;;;;;;;18.50;55.00;;;;;;5061811;28;43617;-59
2022/12/26 07:23:52;;;;;;;;;;;18.50;55.10;;;;;;5048380;28;44049;-59
2022/12/26 07:26:20;;;;;;;;;;;18.50;55.20;;;;;;5063329;28;43435;-59
2022/12/26 07:28:48;;;;;;;;;;;18.50;55.00;;;;;;5063322;28;44704;-59
2022/12/26 07:31:17;;;;;;;;;;;18.50;55.10;;;;;;5064102;28;43502;-59
2022/12/26 07:33:52;;;;;;;;;;;18.50;55.00;;;;;;5056107;28;43387;-59
2022/12/26 07:36:19;;;;;;;;;;;18.50;55.20;;;;;;5062392;28;43552;-59
2022/12/26 07:38:47;;;;;;;;;;;18.50;55.10;;;;;;5062623;28;44660;-59
2022/12/26 07:44:00;;;;;;;;;;;18.50;55.10;;;;;;5056564;28;43449;-59
2022/12/26 07:46:27;;;;;;;;;;;18.40;55.00;;;;;;5062924;28;43504;-59
2022/12/26 07:48:54;;;;;;;;;;;18.50;55.10;;;;;;5063322;28;43891;-59
2022/12/26 07:51:22;;;;;;;;;;;18.40;55.10;;;;;;5063033;28;43528;-59
2022/12/26 07:53:49;;;;;;;;;;;18.40;55.20;;;;;;5064030;28;43466;-59
2022/12/26 07:56:17;;;;;;;;;;;18.40;55.40;;;;;;5063989;28;43515;-59
2022/12/26 07:58:48;;;;;;;;;;;18.50;55.30;;;;;;5063169;28;44341;-59
2022/12/26 08:01:15;;;;;;;;;;;18.50;55.20;;;;;;5060040;28;43475;-59
2022/12/26 08:03:43;;;;;;;;;;;18.50;55.20;;;;;;5063830;28;43429;-60
2022/12/26 08:06:11;;;;;;;;;;;18.50;55.20;;;;;;5044535;28;43562;-60
2022/12/26 08:08:38;;;;;;;;;;;18.50;55.30;;;;;;5062312;28;44804;-59
2022/12/26 08:11:14;;;;;;;;;;;18.50;55.30;;;;;;5055855;28;43799;-59
2022/12/26 08:13:41;;;;;;;;;;;18.50;55.20;;;;;;5063245;28;43415;-59
2022/12/26 08:16:09;;;;;;;;;;;18.40;55.20;;;;;;5063734;28;43477;-59
2022/12/26 08:18:37;;;;;;;;;;;18.50;55.20;;;;;;5062299;28;44445;-59
2022/12/26 08:21:04;;;;;;;;;;;18.40;55.10;;;;;;5063807;28;43540;-60
2022/12/26 08:23:32;;;;;;;;;;;18.50;55.20;;;;;;5063426;28;43488;-59
2022/12/26 08:26:03;;;;;;;;;;;18.40;55.10;;;;;;5063459;28;43435;-59
2022/12/26 08:28:32;;;;;;;;;;;18.40;55.10;;;;;;5063388;28;44797;-59
2022/12/26 08:30:59;;;;;;;;;;;18.40;55.10;;;;;;5063532;28;43921;-60
2022/12/26 08:33:27;;;;;;;;;;;18.40;55.20;;;;;;5062765;28;43403;-60
2022/12/26 08:35:54;;;;;;;;;;;18.40;55.20;;;;;;5058766;28;43570;-60
2022/12/26 08:38:23;;;;;;;;;;;18.40;55.30;;;;;;5063565;28;44678;-59
2022/12/26 08:40:57;;;;;;;;;;;18.30;55.30;;;;;;5062986;28;43407;-59
2022/12/26 08:43:24;;;;;;;;;;;18.40;55.40;;;;;;5062180;28;43475;-59
2022/12/26 08:46:12;;;;;;;;;;;18.40;55.40;;;;;;5063116;28;43503;-59
2022/12/26 08:48:40;;;;;;;;;;;18.40;55.30;;;;;;5062584;28;45048;-59
2022/12/26 08:51:08;;;;;;;;;;;18.50;55.40;;;;;;5062787;28;43837;-59
2022/12/26 08:53:36;;;;;;;;;;;18.50;55.20;;;;;;5061847;28;43388;-60
2022/12/26 08:56:04;;;;;;;;;;;18.50;55.80;;;;;;5062942;28;43479;-60
2022/12/26 09:00:25;;;;;;;;;;;18.60;56.30;;;;;;5096801;27;43954;-59
2022/12/26 09:02:52;;;;;;;;;;;18.70;56.10;;;;;;5079169;27;43470;-59
2022/12/26 09:05:20;;;;;;;;;;;18.80;55.20;;;;;;5066947;28;43507;-59
2022/12/26 09:07:47;;;;;;;;;;;18.80;55.10;;;;;;5070648;27;43426;-60
2022/12/26 09:10:14;;;;;;;;;;;18.90;55.20;;;;;;5081580;27;43872;-62
2022/12/26 09:12:42;;;;;;;;;;;19.00;56.40;;;;;;5087972;27;43498;-59
2022/12/26 09:15:09;;;;;;;;;;;19.10;55.10;;;;;;5068891;27;43451;-61
2022/12/26 09:17:36;;;;;;;;;;;19.10;55.00;;;;;;5071616;27;43478;-59
2022/12/26 09:20:05;;;;;;;;;;;19.30;54.80;;;;;;5076904;28;44726;-58
2022/12/26 09:22:50;;;;;;;;;;;19.40;54.70;;;;;;5068521;27;43506;-58
2022/12/26 09:25:18;;;;;;;;;;;19.40;54.50;;;;;;5066845;28;43935;-59
2022/12/26 09:27:47;;;;;;;;;;;19.50;54.80;;;;;;5071235;28;43435;-59
2022/12/26 09:30:14;;;;;;;;;;;19.50;54.60;;;;;;5069651;27;44942;-59
2022/12/26 09:32:42;;;;;;;;;;;19.60;54.80;;;;;;5063705;28;43961;-58
2022/12/26 09:35:10;;;;;;;;;;;19.70;55.00;;;;;;5071197;27;43440;-59
2022/12/26 09:37:37;;;;;;;;;;;19.80;54.70;;;;;;5073666;28;43526;-59
2022/12/26 09:40:05;;;;;;;;;;;19.80;54.90;;;;;;5078005;27;43893;-59
2022/12/26 09:42:37;;;;;;;;;;;20.00;54.50;;;;;;5077653;28;43799;-59
2022/12/26 09:45:10;;;;;;;;;;;20.10;54.40;;;;;;5078690;27;43442;-59
2022/12/26 09:47:55;;;;;;;;;;;20.20;54.20;;;;;;5078633;27;43522;-59
2022/12/26 09:50:34;;;;;;;;;;;20.40;54.00;;;;;;5074543;27;44988;-60
2022/12/26 09:53:18;;;;;;;;;;;20.50;53.80;;;;;;5078161;27;43443;-59
2022/12/26 09:55:50;;;;;;;;;;;20.60;53.50;;;;;;5078502;28;43359;-59
2022/12/26 09:58:18;;;;;;;;;;;20.80;53.50;;;;;;5080185;27;43501;-60
2022/12/26 10:01:09;;;;;;;;;;;21.00;53.20;;;;;;5097805;27;43770;-60
2022/12/26 10:03:38;;;;;;;;;;;21.10;52.90;;;;;;5087039;27;43419;-59
2022/12/26 10:06:09;;;;;;;;;;;21.20;52.70;;;;;;5098304;27;43482;-59
2022/12/26 10:08:56;;;;;;;;;;;21.30;52.50;;;;;;5085637;27;43617;-60
2022/12/26 10:11:31;;;;;;;;;;;21.40;52.20;;;;;;5077240;27;43939;-59
2022/12/26 10:14:03;;;;;;;;;;;21.40;51.90;;;;;;5080726;28;43476;-59
2022/12/26 10:16:43;;;;;;;;;;;21.50;51.80;;;;;;5083510;28;43543;-59
2022/12/26 10:19:23;;;;;;;;;;;21.50;51.70;;;;;;5068623;28;43967;-59
2022/12/26 10:22:17;;;;;;;;;;;21.50;51.80;;;;;;5085897;27;44026;-59
2022/12/26 10:24:45;;;;;;;;;;;21.50;51.90;;;;;;5079860;28;43474;-59
2022/12/26 10:27:15;;;;;;;;;;;21.50;51.70;;;;;;5081241;28;43396;-59
2022/12/26 10:30:03;;;;;;;;;;;21.50;51.70;;;;;;5084321;27;43482;-59
2022/12/26 10:32:38;;;;;;;;;;;21.50;51.80;;;;;;5078422;28;45116;-59
2022/12/26 10:35:30;;;;;;;;;;;21.50;51.70;;;;;;5081457;27;43455;-59
2022/12/26 10:38:01;;;;;;;;;;;21.50;51.80;;;;;;5086000;27;43472;-59
2022/12/26 10:40:49;;;;;;;;;;;21.40;51.60;;;;;;5083119;27;44052;-59
2022/12/26 10:43:27;;;;;;;;;;;21.40;51.80;;;;;;5082106;28;43928;-59
2022/12/26 10:46:05;;;;;;;;;;;21.30;51.80;;;;;;5083285;27;43549;-59
2022/12/26 10:48:34;;;;;;;;;;;21.30;51.80;;;;;;5079840;27;43462;-59
2022/12/26 10:51:02;;;;;;;;;;;21.30;51.70;;;;;;5087151;27;43417;-59
2022/12/26 10:53:29;;;;;;;;;;;21.20;51.50;;;;;;5082666;27;44651;-59
2022/12/26 10:55:59;;;;;;;;;;;21.20;51.60;;;;;;5081935;28;43460;-59
2022/12/26 10:58:31;;;;;;;;;;;21.10;51.50;;;;;;5083355;27;43418;-59
2022/12/26 11:01:17;;;;;;;;;;;21.10;51.50;;;;;;5086515;27;43461;-60
2022/12/26 11:03:57;;;;;;;;;;;21.00;51.70;;;;;;5081223;28;43997;-59
2022/12/26 11:06:30;;;;;;;;;;;21.00;51.70;;;;;;5081140;28;43819;-59
2022/12/26 11:08:58;;;;;;;;;;;21.00;51.80;;;;;;5083603;27;43486;-59
2022/12/26 11:11:46;;;;;;;;;;;20.90;51.70;;;;;;5065336;27;43556;-59
2022/12/26 11:14:23;;;;;;;;;;;20.90;51.80;;;;;;5062831;28;44934;-59
2022/12/26 11:16:59;;;;;;;;;;;20.90;51.80;;;;;;5085310;27;43423;-59
2022/12/26 11:19:31;;;;;;;;;;;20.80;51.80;;;;;;5080915;27;43375;-59
2022/12/26 11:22:19;;;;;;;;;;;20.80;51.80;;;;;;5079455;27;43542;-59
2022/12/26 11:25:05;;;;;;;;;;;20.70;51.70;;;;;;5071206;27;44949;-59
2022/12/26 11:27:33;;;;;;;;;;;20.70;51.80;;;;;;5080332;28;43563;-59
2022/12/26 11:30:17;;;;;;;;;;;20.70;51.80;;;;;;5080169;28;43474;-60
2022/12/26 11:32:46;;;;;;;;;;;20.60;52.00;;;;;;5078726;27;43734;-59
2022/12/26 11:35:21;;;;;;;;;;;20.60;51.80;;;;;;5077432;28;45019;-59
2022/12/26 11:37:54;;;;;;;;;;;20.60;51.80;;;;;;5081406;28;43450;-59
2022/12/26 11:40:27;;;;;;;;;;;20.50;51.90;;;;;;5080188;28;43521;-59
2022/12/26 11:42:56;;;;;;;;;;;20.50;51.90;;;;;;5061398;28;44122;-59
2022/12/26 11:45:26;;;;;;;;;;;20.40;51.90;;;;;;5080292;28;43785;-59
2022/12/26 11:47:54;;;;;;;;;;;20.40;51.90;;;;;;5060342;28;43517;-59
2022/12/26 11:50:24;;;;;;;;;;;20.40;52.00;;;;;;5079765;27;43642;-59
2022/12/26 11:53:00;;;;;;;;;;;20.30;52.00;;;;;;5082393;27;43598;-59
2022/12/26 11:55:32;;;;;;;;;;;20.30;52.10;;;;;;5080011;28;45027;-59
2022/12/26 11:58:06;;;;;;;;;;;20.30;52.10;;;;;;5077078;28;44424;-59
2022/12/26 12:00:36;;;;;;;;;;;20.30;52.20;;;;;;5081518;28;43481;-59
2022/12/26 12:03:09;;;;;;;;;;;20.20;52.50;;;;;;5082146;27;43471;-59
2022/12/26 12:05:57;;;;;;;;;;;20.20;52.20;;;;;;5080747;28;43793;-59
2022/12/26 12:08:32;;;;;;;;;;;20.20;52.20;;;;;;5080876;27;43549;-59
2022/12/26 12:11:12;;;;;;;;;;;20.20;52.20;;;;;;5079538;27;43441;-59
2022/12/26 12:14:00;;;;;;;;;;;20.20;52.30;;;;;;5084745;27;43526;-59
2022/12/26 12:16:51;;;;;;;;;;;20.10;52.20;;;;;;5077962;28;44873;-59
2022/12/26 12:19:32;;;;;;;;;;;20.10;52.20;;;;;;5076844;28;43502;-59
2022/12/26 12:22:18;;;;;;;;;;;20.10;52.20;;;;;;5072654;28;43479;-59
2022/12/26 12:24:46;;;;;;;;;;;20.10;52.10;;;;;;5081975;27;43548;-59
2022/12/26 12:27:22;;;;;;;;;;;20.10;52.00;;;;;;5082631;27;44226;-59
2022/12/26 12:30:13;;;;;;;;;;;20.10;52.10;;;;;;5080399;27;43494;-59
2022/12/26 12:32:59;;;;;;;;;;;20.10;52.00;;;;;;5066903;27;43558;-59
2022/12/26 12:35:28;;;;;;;;;;;20.10;52.00;;;;;;5076285;27;43479;-59
2022/12/26 12:38:01;;;;;;;;;;;20.00;52.00;;;;;;5080104;27;43776;-59
2022/12/26 12:40:32;;;;;;;;;;;20.10;52.00;;;;;;5080016;28;44052;-59
2022/12/26 12:43:13;;;;;;;;;;;20.00;52.10;;;;;;5078582;28;43386;-59
2022/12/26 12:45:46;;;;;;;;;;;20.00;52.10;;;;;;5080805;28;43442;-59
2022/12/26 12:48:20;;;;;;;;;;;20.00;52.20;;;;;;5085065;27;44003;-59
2022/12/26 12:51:02;;;;;;;;;;;20.00;52.10;;;;;;5081390;27;43474;-59
2022/12/26 12:53:32;;;;;;;;;;;20.00;52.20;;;;;;5079962;28;43410;-58
2022/12/26 12:56:12;;;;;;;;;;;20.00;52.10;;;;;;5080578;28;43493;-59
2022/12/26 12:58:50;;;;;;;;;;;20.00;52.10;;;;;;5079720;27;44725;-59
2022/12/26 13:01:20;;;;;;;;;;;20.00;52.10;;;;;;5079858;28;43994;-59
2022/12/26 13:04:00;;;;;;;;;;;20.00;52.00;;;;;;5080365;27;43466;-59
2022/12/26 13:06:35;;;;;;;;;;;20.00;52.00;;;;;;5081040;28;43561;-59
2022/12/26 13:09:20;;;;;;;;;;;20.00;52.10;;;;;;5077571;28;45079;-58
2022/12/26 13:11:56;;;;;;;;;;;20.00;51.90;;;;;;5082200;27;43490;-59
2022/12/26 13:14:44;;;;;;;;;;;20.00;52.00;;;;;;5080582;27;43442;-60
2022/12/26 13:17:23;;;;;;;;;;;20.00;52.10;;;;;;5080488;27;43562;-59
2022/12/26 13:19:57;;;;;;;;;;;19.90;52.20;;;;;;5077854;28;44028;-59
2022/12/26 13:24:22;;;;;;;;;;;20.00;52.20;;;;;;5077751;28;43423;-59
2022/12/26 13:25:21;;;;;;;;;;;20.00;52.20;;;;;;5078431;27;43500;-59
2022/12/26 13:27:50;;;;;;;;;;;20.00;52.50;;;;;;5078423;27;43466;-59
2022/12/26 13:30:18;;;;;;;;;;;19.90;51.90;;;;;;5079759;28;43782;-59
2022/12/26 13:32:46;;;;;;;;;;;19.90;52.00;;;;;;5081555;27;43608;-59
2022/12/26 13:35:45;;;;;;;;;;;19.90;52.00;;;;;;5078306;27;43517;-59
2022/12/26 13:38:12;;;;;;;;;;;19.90;52.10;;;;;;5044738;28;43673;-59
2022/12/26 13:40:48;;;;;;;;;;;19.90;52.00;;;;;;5080969;27;43765;-59
2022/12/26 13:46:25;;;;;;;;;;;19.90;52.00;;;;;;5085524;27;43463;-59
2022/12/26 13:48:53;;;;;;;;;;;19.90;52.00;;;;;;5078492;28;43551;-59
2022/12/26 13:51:41;;;;;;;;;;;19.80;52.00;;;;;;5076917;28;44659;-59
2022/12/26 13:54:10;;;;;;;;;;;19.80;52.00;;;;;;5063678;28;43526;-59
2022/12/26 13:56:40;;;;;;;;;;;19.80;51.60;;;;;;5083327;28;43427;-59
2022/12/26 13:59:14;;;;;;;;;;;19.90;51.80;;;;;;5082450;28;43509;-59
2022/12/26 14:01:42;;;;;;;;;;;19.80;51.80;;;;;;5082125;27;43882;-60
2022/12/26 14:04:28;;;;;;;;;;;19.80;51.90;;;;;;5081883;27;43543;-60
2022/12/26 14:06:56;;;;;;;;;;;19.80;51.90;;;;;;5079299;28;43440;-59
2022/12/26 14:09:30;;;;;;;;;;;19.80;52.60;;;;;;5083433;28;43570;-59
2022/12/26 14:12:17;;;;;;;;;;;19.80;52.10;;;;;;5083199;27;44143;-59
2022/12/26 14:15:04;;;;;;;;;;;19.70;52.10;;;;;;5086203;27;43790;-59
2022/12/26 14:17:45;;;;;;;;;;;19.70;52.10;;;;;;5082093;27;43495;-60
2022/12/26 14:20:19;;;;;;;;;;;19.70;52.20;;;;;;5085554;27;43426;-59
2022/12/26 14:23:11;;;;;;;;;;;19.70;52.20;;;;;;5082966;27;45010;-59
2022/12/26 14:25:57;;;;;;;;;;;19.70;52.20;;;;;;5081666;28;43552;-59
2022/12/26 14:28:27;;;;;;;;;;;19.70;52.10;;;;;;5086184;27;43544;-59
2022/12/26 14:30:54;;;;;;;;;;;19.70;52.20;;;;;;5079948;27;43370;-59
2022/12/26 14:33:27;;;;;;;;;;;19.70;52.20;;;;;;5082601;27;44038;-59
2022/12/26 14:36:13;;;;;;;;;;;19.70;52.20;;;;;;5083483;28;43441;-59
2022/12/26 14:38:49;;;;;;;;;;;19.70;52.20;;;;;;5083389;27;43598;-59
2022/12/26 14:44:16;;;;;;;;;;;19.70;52.20;;;;;;5048765;28;44727;-59
2022/12/26 14:46:43;;;;;;;;;;;19.70;52.30;;;;;;5081703;28;43368;-59
2022/12/26 14:49:29;;;;;;;;;;;19.70;52.30;;;;;;5084444;27;43454;-60
2022/12/26 14:52:31;;;;;;;;;;;19.70;52.30;;;;;;5080016;28;43551;-59
2022/12/26 14:54:58;;;;;;;;;;;19.70;52.20;;;;;;5077266;27;44394;-59
2022/12/26 14:57:45;;;;;;;;;;;19.70;52.20;;;;;;5083392;27;44097;-59
2022/12/26 15:00:22;;;;;;;;;;;19.70;52.20;;;;;;5076445;28;44043;-59
2022/12/26 15:03:08;;;;;;;;;;;19.70;52.20;;;;;;5081482;28;43412;-60
2022/12/26 15:05:36;;;;;;;;;;;19.70;52.00;;;;;;5078827;27;44976;-59
2022/12/26 15:08:42;;;;;;;;;;;19.70;52.20;;;;;;5083547;27;43403;-59
2022/12/26 15:11:37;;;;;;;;;;;19.70;52.20;;;;;;5037501;28;43506;-60
2022/12/26 15:14:23;;;;;;;;;;;19.70;52.10;;;;;;5036589;28;43486;-60
2022/12/26 15:16:51;;;;;;;;;;;19.70;52.10;;;;;;5069571;27;44971;-59
2022/12/26 15:19:54;;;;;;;;;;;19.70;52.10;;;;;;5080220;28;43612;-59
2022/12/26 15:22:22;;;;;;;;;;;19.70;52.10;;;;;;5054233;28;44058;-59
2022/12/26 15:24:55;;;;;;;;;;;19.70;52.00;;;;;;5074444;27;43477;-59
2022/12/26 15:27:54;;;;;;;;;;;19.70;52.10;;;;;;5074158;28;45037;-59
2022/12/26 15:30:29;;;;;;;;;;;19.70;52.10;;;;;;5085237;27;43526;-59
2022/12/26 15:33:01;;;;;;;;;;;19.70;52.00;;;;;;5063458;28;43415;-59
2022/12/26 15:35:32;;;;;;;;;;;19.70;52.00;;;;;;5079462;27;43574;-59
2022/12/26 15:38:03;;;;;;;;;;;19.80;52.10;;;;;;5083162;27;43957;-59
2022/12/26 15:40:35;;;;;;;;;;;19.80;52.00;;;;;;5081664;28;43510;-59
2022/12/26 15:43:02;;;;;;;;;;;19.70;52.00;;;;;;5079426;28;43498;-60
2022/12/26 15:45:35;;;;;;;;;;;19.70;52.20;;;;;;5082482;28;43452;-60
2022/12/26 15:48:02;;;;;;;;;;;19.70;52.40;;;;;;5081004;28;44315;-60
2022/12/26 15:50:35;;;;;;;;;;;19.80;52.00;;;;;;5081675;28;43546;-60
2022/12/26 15:53:06;;;;;;;;;;;19.80;51.90;;;;;;5084103;27;43467;-60
2022/12/26 15:55:50;;;;;;;;;;;19.80;51.90;;;;;;5080973;28;43412;-59
2022/12/26 15:58:17;;;;;;;;;;;19.80;51.80;;;;;;5084803;27;44756;-59
2022/12/26 16:00:49;;;;;;;;;;;19.80;51.70;;;;;;5080801;27;43489;-60
2022/12/26 16:03:23;;;;;;;;;;;19.80;52.30;;;;;;5081340;27;43422;-59
2022/12/26 16:05:58;;;;;;;;;;;19.90;51.80;;;;;;5081538;28;43491;-60
2022/12/26 16:08:32;;;;;;;;;;;19.90;51.70;;;;;;5081218;27;44051;-60
2022/12/26 16:11:20;;;;;;;;;;;19.90;51.80;;;;;;5077421;27;43793;-59
2022/12/26 16:13:51;;;;;;;;;;;19.90;51.70;;;;;;5082406;27;43384;-59
2022/12/26 16:16:37;;;;;;;;;;;19.90;52.30;;;;;;5081537;27;43495;-59
2022/12/26 16:19:15;;;;;;;;;;;19.90;51.70;;;;;;5082125;28;43775;-59
2022/12/26 16:24:32;;;;;;;;;;;19.90;51.60;;;;;;5083772;27;43463;-59
2022/12/26 16:27:01;;;;;;;;;;;19.90;51.60;;;;;;5081469;28;43513;-59
2022/12/26 16:29:29;;;;;;;;;;;19.90;51.60;;;;;;5085281;27;44675;-59
2022/12/26 16:32:05;;;;;;;;;;;19.90;51.60;;;;;;5083507;27;43689;-59
2022/12/26 16:34:35;;;;;;;;;;;19.90;51.60;;;;;;5082916;27;43470;-59
2022/12/26 16:37:03;;;;;;;;;;;19.90;51.60;;;;;;5084937;27;43495;-59
2022/12/26 16:39:30;;;;;;;;;;;19.90;51.60;;;;;;5081003;28;43956;-59
2022/12/26 16:42:02;;;;;;;;;;;20.00;51.60;;;;;;5078869;27;43486;-59
2022/12/26 16:44:33;;;;;;;;;;;20.00;51.60;;;;;;5081231;28;43519;-59
2022/12/26 16:47:07;;;;;;;;;;;20.00;51.60;;;;;;5081802;28;43417;-59
2022/12/26 16:49:35;;;;;;;;;;;19.90;51.60;;;;;;5078449;28;43804;-59
2022/12/26 16:52:02;;;;;;;;;;;19.90;51.60;;;;;;5082114;27;43446;-59
2022/12/26 16:54:41;;;;;;;;;;;20.00;51.70;;;;;;5081750;28;43511;-59
2022/12/26 16:57:28;;;;;;;;;;;19.90;51.60;;;;;;5078944;28;43541;-59
2022/12/26 16:59:56;;;;;;;;;;;20.00;51.60;;;;;;5079470;27;44752;-59
2022/12/26 17:02:31;;;;;;;;;;;20.00;51.60;;;;;;5077255;27;43791;-60
2022/12/26 17:05:01;;;;;;;;;;;20.00;52.20;;;;;;5081838;27;43441;-59